Time;durP1;ratioP1;P1;durP2;ratioP2;P2;SDS_P1;SDS_P2;PMS_P1;PMS_P2;Temp;Humidity;BMP_temperature;BMP_pressure;BME280_temperature;BME280_humidity;BME280_pressure;Samples;Min_cycle;Max_cycle;Signal;HPM_P1;HPM_P2
2023/10/27 00:01:27;;;;;;;17.58;4.72;;;;;;;11.87;83.68;98456.31;4171784;28;20048;-71
2023/10/27 00:03:30;;;;;;;10.05;3.85;;;;;;;11.86;83.68;98458.06;4194456;28;20067;-72
2023/10/27 00:05:33;;;;;;;15.30;4.40;;;;;;;11.85;83.66;98451.16;4190579;28;20051;-71
2023/10/27 00:07:36;;;;;;;15.00;4.55;;;;;;;11.85;83.26;98447.69;4172069;28;20106;-71
2023/10/27 00:09:41;;;;;;;20.08;4.97;;;;;;;11.86;83.33;98455.47;4191067;28;20115;-71
2023/10/27 00:11:44;;;;;;;14.27;5.13;;;;;;;11.84;83.32;98452.06;4188329;28;20127;-71
2023/10/27 00:13:47;;;;;;;14.75;5.32;;;;;;;11.83;83.42;98455.53;4189867;28;20051;-71
2023/10/27 00:15:50;;;;;;;23.60;7.40;;;;;;;11.86;83.11;98446.81;4171000;28;20495;-71
2023/10/27 00:17:53;;;;;;;14.85;4.70;;;;;;;11.84;83.08;98454.66;4185144;28;20041;-71
2023/10/27 00:19:56;;;;;;;13.52;5.00;;;;;;;11.82;83.21;98456.44;4192304;28;20028;-71
2023/10/27 00:21:59;;;;;;;17.25;4.53;;;;;;;11.83;83.53;98449.50;4189941;28;20043;-71
2023/10/27 00:24:02;;;;;;;15.10;4.22;;;;;;;11.82;83.63;98453.81;4188932;28;20044;-71
2023/10/27 00:26:06;;;;;;;21.60;5.20;;;;;;;11.82;83.70;98459.03;4194311;28;20036;-71
2023/10/27 00:28:09;;;;;;;20.48;6.32;;;;;;;11.79;83.44;98458.25;4174197;28;20272;-72
2023/10/27 00:30:13;;;;;;;11.18;4.32;;;;;;;11.78;83.39;98452.19;4172553;28;20041;-71
2023/10/27 00:32:15;;;;;;;19.45;5.22;;;;;;;11.76;83.46;98448.75;4168118;28;20131;-71
2023/10/27 00:34:18;;;;;;;12.43;4.60;;;;;;;11.79;83.39;98446.09;4189109;28;20079;-71
2023/10/27 00:36:21;;;;;;;15.60;5.40;;;;;;;11.76;83.47;98443.56;4173055;28;20041;-71
2023/10/27 00:38:24;;;;;;;18.98;6.45;;;;;;;11.75;83.33;98441.84;4175231;28;20041;-71
2023/10/27 00:40:27;;;;;;;13.90;4.63;;;;;;;11.74;83.35;98441.88;4171310;28;20529;-71
2023/10/27 00:42:32;;;;;;;16.55;6.22;;;;;;;11.72;84.20;98443.66;4168317;28;20049;-71
2023/10/27 00:44:35;;;;;;;15.68;5.28;;;;;;;11.72;83.78;98441.91;4178161;28;20063;-71
2023/10/27 00:46:39;;;;;;;16.67;5.40;;;;;;;11.73;84.13;98435.81;4178403;28;20037;-71
2023/10/27 00:48:42;;;;;;;15.45;5.70;;;;;;;11.74;83.77;98437.53;4172579;28;20061;-71
2023/10/27 00:50:45;;;;;;;17.35;5.13;;;;;;;11.74;83.96;98441.88;4176059;28;20079;-71
2023/10/27 00:52:49;;;;;;;19.13;4.80;;;;;;;11.75;84.25;98435.78;4175822;28;20061;-71
2023/10/27 00:54:52;;;;;;;20.90;5.10;;;;;;;11.74;83.88;98437.53;4178010;28;20079;-72
2023/10/27 00:56:55;;;;;;;15.77;4.90;;;;;;;11.75;84.21;98428.81;4159733;28;20037;-72
2023/10/27 00:59:00;;;;;;;11.77;4.13;;;;;;;11.77;84.01;98434.00;4169255;28;20059;-72
2023/10/27 01:01:05;;;;;;;13.98;4.63;;;;;;;11.75;84.21;98427.97;4168305;28;20045;-71
2023/10/27 01:03:08;;;;;;;17.63;5.05;;;;;;;11.74;83.92;98421.94;4160544;28;20095;-71
2023/10/27 01:05:11;;;;;;;14.85;5.28;;;;;;;11.75;84.12;98428.81;4191088;28;20622;-71
2023/10/27 01:07:14;;;;;;;16.67;4.57;;;;;;;11.79;84.00;98420.06;4191190;28;20040;-71
2023/10/27 01:09:17;;;;;;;14.43;4.15;;;;;;;11.75;84.31;98423.63;4175335;28;20037;-71
2023/10/27 01:11:21;;;;;;;11.55;4.25;;;;;;;11.75;84.54;98426.22;4176576;28;20041;-71
2023/10/27 01:13:24;;;;;;;10.02;3.75;;;;;;;11.72;84.34;98421.09;4189274;28;20487;-71
2023/10/27 01:15:30;;;;;;;21.42;4.68;;;;;;;11.80;83.89;98424.38;4169927;28;20045;-71
2023/10/27 01:17:33;;;;;;;22.88;5.80;;;;;;;11.79;84.42;98414.84;4169809;28;20049;-71
2023/10/27 01:19:36;;;;;;;14.80;5.35;;;;;;;11.81;84.33;98413.09;4194389;28;20482;-71
2023/10/27 01:21:39;;;;;;;13.02;4.18;;;;;;;11.78;84.13;98414.88;4178446;28;20041;-71
2023/10/27 01:23:43;;;;;;;13.82;3.85;;;;;;;11.77;84.71;98411.44;4173572;28;20120;-71
2023/10/27 01:25:46;;;;;;;15.57;5.05;;;;;;;11.71;85.08;98406.38;4193624;28;20453;-71
2023/10/27 01:27:49;;;;;;;17.27;5.60;;;;;;;11.77;84.87;98407.97;4193269;28;20066;-71
2023/10/27 01:29:52;;;;;;;16.60;5.10;;;;;;;11.80;84.73;98398.34;4172210;28;20068;-72
2023/10/27 01:31:54;;;;;;;24.70;5.88;;;;;;;11.81;84.64;98397.47;4175108;28;20124;-71
2023/10/27 01:33:57;;;;;;;14.82;4.97;;;;;;;11.87;84.53;98396.44;4173721;28;20033;-71
2023/10/27 01:36:00;;;;;;;19.80;4.88;;;;;;;11.87;84.53;98393.81;4161101;28;20084;-71
2023/10/27 01:38:02;;;;;;;16.98;5.20;;;;;;;11.86;84.80;98394.75;4176727;28;20080;-71
2023/10/27 01:40:08;;;;;;;12.65;4.55;;;;;;;11.87;84.71;98393.81;4190666;28;20061;-71
2023/10/27 01:42:10;;;;;;;24.25;5.78;;;;;;;11.86;85.21;98398.19;4196299;28;20076;-71
2023/10/27 01:44:13;;;;;;;12.60;4.22;;;;;;;11.95;84.74;98388.50;4173682;28;20047;-72
2023/10/27 01:46:16;;;;;;;19.30;6.18;;;;;;;11.90;84.93;98387.69;4174847;28;20040;-71
2023/10/27 01:48:19;;;;;;;14.18;5.03;;;;;;;11.90;84.75;98390.31;4171123;28;20127;-71
2023/10/27 01:50:22;;;;;;;16.98;4.70;;;;;;;11.90;84.73;98390.31;4187965;28;20039;-71
2023/10/27 01:52:25;;;;;;;17.80;5.55;;;;;;;11.90;84.98;98387.69;4193796;28;20040;-71
2023/10/27 01:54:28;;;;;;;15.77;4.95;;;;;;;11.88;85.14;98388.63;4176041;28;20056;-71
2023/10/27 01:56:33;;;;;;;19.35;5.85;;;;;;;11.93;85.41;98385.00;4170578;28;20043;-71
2023/10/27 01:58:40;;;;;;;16.23;5.40;;;;;;;11.83;85.81;98382.66;4166803;28;20041;-71
2023/10/27 02:00:43;;;;;;;19.40;5.55;;;;;;;11.81;85.89;98387.06;4169789;28;20405;-71
2023/10/27 02:02:46;;;;;;;17.17;6.00;;;;;;;11.87;86.26;98388.63;4175707;28;20124;-71
2023/10/27 02:04:49;;;;;;;14.93;5.65;;;;;;;11.87;86.21;98386.88;4173062;28;20124;-71
2023/10/27 02:06:53;;;;;;;25.30;6.75;;;;;;;11.92;86.04;98391.13;4175968;28;20499;-72
2023/10/27 02:08:57;;;;;;;20.15;5.22;;;;;;;11.87;86.81;98386.00;4173697;28;20033;-71
2023/10/27 02:10:58;;;;;;;15.73;5.45;;;;;;;11.92;86.34;98383.31;4171130;28;20076;-71
2023/10/27 02:13:03;;;;;;;20.75;6.95;;;;;;;12.01;85.63;98383.13;4176360;28;20059;-72
2023/10/27 02:15:08;;;;;;;16.48;6.07;;;;;;;11.88;86.13;98379.94;4193942;28;20054;-71
2023/10/27 02:17:11;;;;;;;17.10;5.85;;;;;;;11.88;86.21;98380.81;4171293;28;20130;-71
2023/10/27 02:19:14;;;;;;;24.02;5.95;;;;;;;11.83;86.41;98377.44;4175410;28;20124;-72
2023/10/27 02:21:17;;;;;;;15.20;5.82;;;;;;;11.86;86.75;98376.53;4175471;28;20040;-71
2023/10/27 02:23:20;;;;;;;17.17;5.70;;;;;;;11.93;86.32;98369.38;4163806;28;20047;-71
2023/10/27 02:25:23;;;;;;;19.88;6.28;;;;;;;11.96;86.15;98367.63;4194062;28;20058;-71
2023/10/27 02:27:26;;;;;;;15.98;5.03;;;;;;;12.03;85.74;98368.28;4173467;28;20033;-72
2023/10/27 02:29:30;;;;;;;14.60;4.65;;;;;;;11.98;86.24;98370.19;4166936;28;20038;-71
2023/10/27 02:31:33;;;;;;;13.82;5.30;;;;;;;12.02;86.09;98358.78;4172863;28;20372;-71
2023/10/27 02:33:37;;;;;;;13.00;5.05;;;;;;;11.99;86.15;98358.88;4189976;28;20475;-71
2023/10/27 02:35:40;;;;;;;11.48;4.30;;;;;;;11.92;86.02;98358.13;4173582;28;20044;-71
2023/10/27 02:37:42;;;;;;;11.48;3.90;;;;;;;11.92;86.33;98365.09;4152720;28;20132;-71
2023/10/27 02:39:44;;;;;;;14.57;4.50;;;;;;;11.89;86.19;98358.22;4192468;28;20098;-71
2023/10/27 02:41:48;;;;;;;13.85;3.97;;;;;;;11.95;85.77;98360.69;4166847;28;20211;-71
2023/10/27 02:43:50;;;;;;;13.10;3.22;;;;;;;11.83;85.96;98358.38;4170742;28;20128;-71
2023/10/27 02:46:01;;;;;;;11.45;3.97;;;;;;;11.91;85.82;98360.78;4176240;28;20063;-71
2023/10/27 02:48:05;;;;;;;11.27;3.53;;;;;;;11.75;86.11;98355.94;4172385;28;20049;-71
2023/10/27 02:50:08;;;;;;;12.15;3.15;;;;;;;11.82;86.26;98354.91;4153685;28;20598;-71
2023/10/27 02:52:11;;;;;;;13.73;4.03;;;;;;;11.82;85.88;98357.50;4188299;28;20087;-71
2023/10/27 02:54:14;;;;;;;10.80;3.30;;;;;;;11.73;86.65;98357.72;4164485;28;20041;-71
2023/10/27 02:56:15;;;;;;;10.63;4.15;;;;;;;11.71;86.33;98351.72;4162028;28;20029;-71
2023/10/27 02:58:19;;;;;;;13.77;3.80;;;;;;;11.78;86.25;98350.66;4164329;28;20114;-71
2023/10/27 03:00:22;;;;;;;9.80;3.42;;;;;;;11.81;86.21;98349.72;4184262;28;20045;-71
2023/10/27 03:02:27;;;;;;;10.43;2.83;;;;;;;11.84;85.67;98350.53;4155549;28;20128;-71
2023/10/27 03:04:29;;;;;;;12.05;2.88;;;;;;;11.69;86.40;98351.72;4171413;28;20399;-71
2023/10/27 03:06:32;;;;;;;10.88;2.95;;;;;;;11.69;86.81;98353.50;4161666;28;20064;-71
2023/10/27 03:08:35;;;;;;;11.85;2.90;;;;;;;11.70;86.36;98353.44;4174444;28;20037;-71
2023/10/27 03:10:38;;;;;;;11.57;3.63;;;;;;;11.67;86.49;98348.31;4177517;28;20498;-71
2023/10/27 03:12:41;;;;;;;11.95;3.78;;;;;;;11.76;86.42;98347.25;4173959;28;20491;-71
2023/10/27 03:14:44;;;;;;;9.52;2.83;;;;;;;11.80;86.45;98351.50;4176527;28;20032;-71
2023/10/27 03:16:47;;;;;;;9.88;3.10;;;;;;;11.79;86.15;98352.38;4187924;28;20367;-71
2023/10/27 03:18:51;;;;;;;10.57;2.85;;;;;;;11.81;86.52;98347.13;4157138;28;20499;-71
2023/10/27 03:20:55;;;;;;;10.05;3.33;;;;;;;11.83;86.60;98342.75;4176798;28;20503;-71
2023/10/27 03:22:58;;;;;;;14.48;3.05;;;;;;;11.97;85.87;98342.41;4176858;28;20120;-70
2023/10/27 03:25:01;;;;;;;13.52;3.33;;;;;;;11.84;85.94;98339.22;4171585;28;20458;-70
2023/10/27 03:27:04;;;;;;;13.70;3.15;;;;;;;11.80;85.94;98346.28;4190777;28;20116;-70
2023/10/27 03:29:07;;;;;;;8.57;2.50;;;;;;;11.85;86.05;98333.16;4188423;28;20044;-71
2023/10/27 03:31:12;;;;;;;13.07;3.83;;;;;;;11.78;86.52;98340.25;4167778;28;20088;-71
2023/10/27 03:33:16;;;;;;;8.40;2.60;;;;;;;11.83;86.14;98343.59;4170386;28;20406;-71
2023/10/27 03:35:23;;;;;;;10.05;3.22;;;;;;;11.84;86.05;98340.09;4156803;28;20480;-71
2023/10/27 03:37:25;;;;;;;11.10;2.97;;;;;;;11.88;85.64;98333.06;4191827;28;20036;-71
2023/10/27 03:39:27;;;;;;;11.27;3.42;;;;;;;11.86;85.72;98338.31;4178970;28;20036;-71
2023/10/27 03:41:30;;;;;;;9.05;2.55;;;;;;;11.87;85.98;98334.81;4173856;28;20123;-71
2023/10/27 03:43:34;;;;;;;10.40;3.17;;;;;;;11.84;86.18;98340.09;4186311;28;20036;-71
2023/10/27 03:45:37;;;;;;;11.10;3.10;;;;;;;11.73;86.45;98341.28;4188923;28;20037;-71
2023/10/27 03:47:39;;;;;;;7.90;2.92;;;;;;;11.81;86.40;98345.41;4194226;28;20044;-71
2023/10/27 03:49:46;;;;;;;11.13;2.72;;;;;;;11.83;86.22;98341.00;4174274;28;20350;-71
2023/10/27 03:51:50;;;;;;;8.50;3.05;;;;;;;11.84;85.71;98340.09;4155391;28;20034;-71
2023/10/27 03:53:54;;;;;;;13.40;2.50;;;;;;;11.83;85.89;98343.59;4194053;28;20594;-71
2023/10/27 03:55:57;;;;;;;8.07;3.10;;;;;;;11.83;86.10;98345.34;4187635;28;20127;-71
2023/10/27 03:58:13;;;;;;;12.00;3.20;;;;;;;11.84;86.07;98337.50;4183130;28;20040;-71
2023/10/27 04:00:16;;;;;;;11.35;3.38;;;;;;;11.85;86.04;98335.75;4192934;28;20040;-71
2023/10/27 04:02:19;;;;;;;7.72;2.42;;;;;;;11.87;85.90;98334.81;4191315;28;20037;-71
2023/10/27 04:04:22;;;;;;;9.60;2.78;;;;;;;11.69;86.19;98330.91;4188834;28;20064;-71
2023/10/27 04:06:25;;;;;;;9.18;2.92;;;;;;;11.79;86.24;98331.53;4192798;28;20533;-70
2023/10/27 04:08:31;;;;;;;7.03;2.40;;;;;;;11.69;86.72;98336.13;4149724;28;20260;-71
2023/10/27 04:10:35;;;;;;;5.40;1.92;;;;;;;11.72;86.68;98339.56;4192812;28;20036;-70
2023/10/27 04:12:38;;;;;;;9.93;3.13;;;;;;;11.68;86.78;98339.63;4185188;28;20036;-70
2023/10/27 04:14:41;;;;;;;8.25;2.28;;;;;;;11.66;87.50;98341.41;4169271;28;20039;-70
2023/10/27 04:16:44;;;;;;;10.40;3.03;;;;;;;11.75;87.36;98342.91;4185967;28;20043;-70
2023/10/27 04:18:48;;;;;;;8.60;2.10;;;;;;;11.79;86.59;98341.13;4191067;28;20458;-70
2023/10/27 04:20:51;;;;;;;7.43;2.40;;;;;;;11.71;86.78;98341.31;4194779;28;20052;-70
2023/10/27 04:22:53;;;;;;;10.02;2.70;;;;;;;11.64;87.15;98340.59;4191466;28;20428;-70
2023/10/27 04:24:57;;;;;;;10.45;2.58;;;;;;;11.68;87.17;98337.03;4190032;28;20051;-71
2023/10/27 04:27:00;;;;;;;11.13;2.90;;;;;;;11.66;87.48;98341.41;4195043;28;20039;-71
2023/10/27 04:29:03;;;;;;;7.75;1.90;;;;;;;11.72;86.65;98345.59;4186319;28;20407;-70
2023/10/27 04:31:06;;;;;;;8.32;2.42;;;;;;;11.65;87.26;98342.31;4192663;28;20398;-70
2023/10/27 04:33:10;;;;;;;6.88;2.15;;;;;;;11.63;86.81;98340.63;4185642;28;20036;-70
2023/10/27 04:35:13;;;;;;;7.47;2.13;;;;;;;11.61;86.91;98332.00;4196905;28;20036;-70
2023/10/27 04:37:16;;;;;;;6.68;2.40;;;;;;;11.63;86.64;98330.22;4152678;28;20068;-70
2023/10/27 04:39:44;;;;;;;7.30;2.22;;;;;;;11.60;87.16;98331.16;4186829;28;20495;-70
2023/10/27 04:41:49;;;;;;;8.15;2.13;;;;;;;11.63;87.44;98325.88;4192418;28;20037;-71
2023/10/27 04:43:51;;;;;;;7.18;2.45;;;;;;;11.71;87.33;98328.31;4193979;28;20508;-71
2023/10/27 04:45:53;;;;;;;6.20;1.98;;;;;;;11.72;86.83;98340.41;4177355;28;20043;-70
2023/10/27 04:47:56;;;;;;;7.72;2.60;;;;;;;11.73;86.42;98333.47;4195484;28;20044;-71
2023/10/27 04:50:00;;;;;;;5.85;2.28;;;;;;;11.67;87.10;98337.06;4194615;28;20033;-70
2023/10/27 04:52:05;;;;;;;9.17;2.97;;;;;;;11.72;86.96;98334.34;4192905;28;20149;-70
2023/10/27 04:54:08;;;;;;;8.27;3.28;;;;;;;11.73;86.98;98331.72;4193249;28;20044;-71
2023/10/27 04:56:11;;;;;;;9.98;3.72;;;;;;;11.73;86.95;98331.72;4179576;28;20072;-71
2023/10/27 04:58:14;;;;;;;7.60;2.95;;;;;;;11.74;86.63;98338.63;4177879;28;20175;-71
2023/10/27 05:00:17;;;;;;;7.30;2.58;;;;;;;11.77;87.21;98333.34;4174561;28;20044;-70
2023/10/27 05:02:20;;;;;;;8.70;2.97;;;;;;;11.80;86.63;98346.28;4166422;28;20038;-70
2023/10/27 05:04:23;;;;;;;11.10;3.13;;;;;;;11.81;86.37;98332.38;4177987;28;20036;-70
2023/10/27 05:06:26;;;;;;;11.60;3.28;;;;;;;11.83;86.63;98335.78;4191970;28;20051;-70
2023/10/27 05:08:29;;;;;;;9.30;3.30;;;;;;;11.86;85.88;98334.84;4195918;28;20663;-71
2023/10/27 05:10:32;;;;;;;8.70;3.13;;;;;;;11.71;86.80;98338.72;4194670;28;20036;-71
2023/10/27 05:12:36;;;;;;;7.65;2.88;;;;;;;11.65;87.00;98342.31;4196057;28;20036;-71
2023/10/27 05:14:40;;;;;;;8.60;2.85;;;;;;;11.61;87.31;98352.81;4169179;28;20120;-71
2023/10/27 05:16:43;;;;;;;15.52;3.78;;;;;;;11.66;87.12;98345.75;4191895;28;20033;-70
2023/10/27 05:18:47;;;;;;;12.18;3.22;;;;;;;11.65;87.47;98344.03;4163426;28;20041;-71
2023/10/27 05:20:50;;;;;;;9.82;3.53;;;;;;;11.61;87.58;98343.28;4190713;28;20045;-70
2023/10/27 05:22:53;;;;;;;9.60;3.08;;;;;;;11.61;87.36;98345.88;4196414;28;20029;-71
2023/10/27 05:24:57;;;;;;;7.47;3.20;;;;;;;11.68;86.96;98343.97;4196732;28;20128;-70
2023/10/27 05:27:01;;;;;;;9.32;4.00;;;;;;;11.72;86.51;98340.41;4191952;28;20037;-71
2023/10/27 05:29:04;;;;;;;11.05;3.80;;;;;;;11.62;87.00;98336.31;4194408;28;20039;-70
2023/10/27 05:31:08;;;;;;;9.00;4.10;;;;;;;11.65;86.95;98338.84;4195790;28;20049;-71
2023/10/27 05:33:11;;;;;;;8.75;3.13;;;;;;;11.65;86.94;98337.09;4194236;28;20037;-70
2023/10/27 05:35:14;;;;;;;7.57;2.92;;;;;;;11.69;86.97;98335.28;4189624;28;20047;-70
2023/10/27 05:37:17;;;;;;;10.07;4.22;;;;;;;11.67;87.25;98334.47;4193865;28;20045;-71
2023/10/27 05:39:20;;;;;;;10.30;3.95;;;;;;;11.66;86.95;98322.34;4177316;28;20067;-71
2023/10/27 05:41:23;;;;;;;7.82;3.45;;;;;;;11.66;87.07;98325.78;4196239;28;20059;-71
2023/10/27 05:43:26;;;;;;;7.63;2.88;;;;;;;11.76;86.79;98321.22;4195587;28;20131;-71
2023/10/27 05:45:28;;;;;;;6.25;3.40;;;;;;;11.68;86.72;98329.22;4195227;28;20040;-71
2023/10/27 05:47:33;;;;;;;9.18;3.42;;;;;;;11.60;87.49;98330.31;4195784;28;20039;-71
2023/10/27 05:49:36;;;;;;;8.48;3.97;;;;;;;11.63;87.46;98318.06;4193857;28;20058;-70
2023/10/27 05:51:38;;;;;;;8.77;3.42;;;;;;;11.68;87.28;98330.94;4189936;28;20517;-71
2023/10/27 05:53:40;;;;;;;8.25;3.50;;;;;;;11.69;87.14;98330.06;4190578;28;20479;-71
2023/10/27 05:55:44;;;;;;;7.43;3.80;;;;;;;11.71;86.58;98323.09;4194988;28;20036;-71
2023/10/27 05:57:47;;;;;;;8.00;3.45;;;;;;;11.80;86.74;98320.25;4187738;28;20043;-70
2023/10/27 05:59:49;;;;;;;10.32;4.07;;;;;;;11.61;86.85;98321.59;4194548;28;20043;-70
2023/10/27 06:01:54;;;;;;;8.40;3.03;;;;;;;11.70;87.10;98316.16;4193504;28;20127;-70
2023/10/27 06:04:14;;;;;;;11.48;3.97;;;;;;;11.60;86.99;98312.09;4186335;28;20466;-70
2023/10/27 06:06:16;;;;;;;6.93;3.40;;;;;;;11.61;87.26;98311.16;4194991;28;20052;-71
2023/10/27 06:08:19;;;;;;;7.35;3.35;;;;;;;11.59;87.41;98313.81;4170949;28;20069;-71
2023/10/27 06:10:22;;;;;;;7.90;3.35;;;;;;;11.67;87.80;98318.84;4195087;28;20037;-70
2023/10/27 06:12:25;;;;;;;6.35;3.38;;;;;;;11.69;87.00;98310.09;4189377;28;20036;-71
2023/10/27 06:14:28;;;;;;;6.25;2.97;;;;;;;11.64;87.62;98321.53;4193699;28;20498;-70
2023/10/27 06:16:31;;;;;;;3.70;2.47;;;;;;;11.76;87.05;98316.00;4177244;28;20056;-70
2023/10/27 06:18:33;;;;;;;7.05;2.60;;;;;;;11.75;86.28;98316.88;4176734;28;20041;-70
2023/10/27 06:20:37;;;;;;;3.97;2.25;;;;;;;11.74;85.66;98315.19;4194720;28;20483;-70
2023/10/27 06:22:40;;;;;;;4.35;2.28;;;;;;;11.63;86.16;98312.84;4194721;28;20033;-70
2023/10/27 06:24:43;;;;;;;3.70;1.90;;;;;;;11.67;86.54;98311.03;4190506;28;20466;-70
2023/10/27 06:26:46;;;;;;;6.20;2.50;;;;;;;11.61;86.67;98311.16;4176770;28;20084;-70
2023/10/27 06:28:48;;;;;;;10.30;2.95;;;;;;;11.63;87.07;98314.59;4187633;28;20028;-71
2023/10/27 06:30:51;;;;;;;5.07;2.30;;;;;;;11.66;86.50;98310.16;4192594;28;20040;-71
2023/10/27 06:32:54;;;;;;;4.65;2.47;;;;;;;11.59;86.82;98310.38;4189791;28;20064;-71
2023/10/27 06:34:57;;;;;;;4.18;2.42;;;;;;;11.64;87.15;98300.72;4190402;28;20040;-71
2023/10/27 06:37:01;;;;;;;8.15;2.78;;;;;;;11.59;87.42;98311.22;4194020;28;20076;-71
2023/10/27 06:39:04;;;;;;;6.22;2.47;;;;;;;11.59;86.82;98315.56;4194195;28;20033;-70
2023/10/27 06:41:07;;;;;;;4.68;2.35;;;;;;;11.43;87.23;98323.72;4195268;28;20089;-71
2023/10/27 06:43:09;;;;;;;4.28;2.38;;;;;;;11.44;88.07;98322.84;4195274;28;20032;-70
2023/10/27 06:45:12;;;;;;;4.72;2.30;;;;;;;11.42;88.24;98327.25;4188256;28;20041;-70
2023/10/27 06:47:18;;;;;;;4.82;2.85;;;;;;;11.41;88.64;98319.47;4192314;28;20047;-71
2023/10/27 06:49:25;;;;;;;4.80;2.03;;;;;;;11.39;88.27;98332.53;4194111;28;20041;-70
2023/10/27 06:51:28;;;;;;;6.40;2.40;;;;;;;11.52;87.45;98326.13;4194341;28;20478;-71
2023/10/27 06:53:32;;;;;;;3.53;2.17;;;;;;;11.53;87.39;98330.47;4191923;28;20134;-70
2023/10/27 06:55:35;;;;;;;7.65;2.72;;;;;;;11.66;87.23;98328.38;4191179;28;20041;-71
2023/10/27 06:57:39;;;;;;;5.30;1.55;;;;;;;11.44;87.09;98330.66;4194111;28;20071;-70
2023/10/27 06:59:42;;;;;;;4.63;1.67;;;;;;;11.44;87.94;98333.25;4193480;28;20043;-70
2023/10/27 07:01:45;;;;;;;5.00;1.65;;;;;;;11.38;87.91;98336.00;4194162;28;20128;-70
2023/10/27 07:03:50;;;;;;;3.37;1.60;;;;;;;11.38;88.59;98342.97;4190196;28;20047;-70
2023/10/27 07:05:53;;;;;;;3.22;1.55;;;;;;;11.42;88.49;98339.38;4194108;28;20291;-70
2023/10/27 07:07:56;;;;;;;3.08;1.30;;;;;;;11.44;88.60;98335.84;4193606;28;20127;-70
2023/10/27 07:10:00;;;;;;;4.38;1.30;;;;;;;11.57;87.66;98338.19;4193519;28;20068;-70
2023/10/27 07:12:03;;;;;;;4.20;1.50;;;;;;;11.58;87.11;98337.28;4194421;28;20040;-70
2023/10/27 07:14:06;;;;;;;2.08;1.10;;;;;;;11.48;87.94;98340.09;4174041;28;20380;-70
2023/10/27 07:16:09;;;;;;;2.60;1.27;;;;;;;11.48;87.94;98342.72;4194248;28;20062;-70
2023/10/27 07:18:12;;;;;;;2.67;1.20;;;;;;;11.48;88.05;98342.72;4193391;28;20037;-70
2023/10/27 07:20:15;;;;;;;2.83;1.27;;;;;;;11.45;88.18;98345.38;4194913;28;20037;-70
2023/10/27 07:22:19;;;;;;;3.97;1.67;;;;;;;11.36;87.90;98350.81;4194210;28;20101;-70
2023/10/27 07:24:22;;;;;;;2.80;1.20;;;;;;;11.39;87.77;98345.53;4190563;28;20082;-70
2023/10/27 07:26:27;;;;;;;3.33;1.08;;;;;;;11.47;87.99;98351.41;4191245;28;20044;-70
2023/10/27 07:28:30;;;;;;;6.88;1.33;;;;;;;11.39;88.24;98362.88;4193228;28;20491;-70
2023/10/27 07:30:33;;;;;;;2.67;1.30;;;;;;;11.36;87.98;98363.81;4193770;28;20128;-70
2023/10/27 07:32:36;;;;;;;2.85;1.27;;;;;;;11.43;88.11;98360.16;4194181;28;20082;-70
2023/10/27 07:34:39;;;;;;;5.13;1.33;;;;;;;11.32;87.74;98369.97;4187182;28;20036;-70
2023/10/27 07:36:42;;;;;;;3.42;1.17;;;;;;;11.30;88.07;98369.13;4190799;28;20039;-70
2023/10/27 07:38:45;;;;;;;2.70;1.10;;;;;;;11.24;88.29;98364.09;4176338;28;20053;-70
2023/10/27 07:40:48;;;;;;;2.50;1.00;;;;;;;11.26;87.92;98368.38;4194064;28;20033;-70
2023/10/27 07:42:52;;;;;;;1.67;0.80;;;;;;;11.39;87.89;98374.16;4187313;28;20041;-70
2023/10/27 07:44:54;;;;;;;4.68;1.00;;;;;;;11.46;88.21;98362.72;4191135;28;20028;-70
2023/10/27 07:47:00;;;;;;;2.15;0.90;;;;;;;11.43;88.03;98375.78;4190390;28;20041;-70
2023/10/27 07:49:03;;;;;;;2.15;0.98;;;;;;;11.30;87.64;98383.03;4176069;28;20037;-70
2023/10/27 07:51:06;;;;;;;1.55;0.90;;;;;;;11.33;87.72;98379.47;4168440;28;20088;-70
2023/10/27 07:53:09;;;;;;;2.38;1.02;;;;;;;11.31;88.02;98371.69;4189618;28;20143;-70
2023/10/27 07:55:12;;;;;;;2.13;0.70;;;;;;;11.37;87.98;98369.88;4196802;28;20033;-69
2023/10/27 07:57:15;;;;;;;1.88;1.10;;;;;;;11.38;88.43;98372.44;4175914;28;20045;-70
2023/10/27 07:59:19;;;;;;;0.95;0.60;;;;;;;11.41;88.01;98382.78;4192590;28;20394;-70
2023/10/27 08:01:22;;;;;;;1.75;0.98;;;;;;;11.41;87.45;98382.78;4191257;28;20094;-70
2023/10/27 08:03:25;;;;;;;4.38;1.05;;;;;;;11.47;87.47;98393.03;4196814;28;20040;-70
2023/10/27 08:05:28;;;;;;;4.25;0.98;;;;;;;11.46;86.03;98399.16;4194082;28;20524;-70
2023/10/27 08:07:31;;;;;;;1.73;1.05;;;;;;;11.51;85.03;98414.66;4196950;28;20069;-71
2023/10/27 08:09:34;;;;;;;3.95;0.90;;;;;;;11.45;83.05;98420.84;4178663;28;20036;-70
2023/10/27 08:11:37;;;;;;;1.83;0.77;;;;;;;11.51;82.89;98420.69;4173132;28;20030;-70
2023/10/27 08:13:39;;;;;;;3.05;0.73;;;;;;;11.56;83.08;98427.53;4195927;28;20043;-71
2023/10/27 08:15:44;;;;;;;1.25;0.65;;;;;;;11.60;82.57;98431.81;4195263;28;20569;-70
2023/10/27 08:17:47;;;;;;;;;;;;;;;11.62;82.77;98440.41;4197152;28;21648;-70
2023/10/27 08:19:50;;;;;;;2.22;0.57;;;;;;;11.63;82.00;98455.16;4179221;28;19935;-70
2023/10/27 08:21:53;;;;;;;2.55;0.55;;;;;;;11.72;82.18;98452.31;4193238;28;20033;-71
2023/10/27 08:23:56;;;;;;;2.03;0.70;;;;;;;11.80;81.56;98459.97;4197190;28;20437;-70
2023/10/27 08:25:59;;;;;;;0.77;0.50;;;;;;;11.77;81.72;98478.25;4197278;28;20032;-70
2023/10/27 08:28:02;;;;;;;0.40;0.40;;;;;;;11.87;82.17;98487.56;4178401;28;20051;-70
2023/10/27 08:30:07;;;;;;;1.35;0.80;;;;;;;11.82;80.24;98495.47;4196541;28;20067;-70
2023/10/27 08:32:11;;;;;;;1.52;0.60;;;;;;;11.81;81.56;98501.59;4196943;28;20048;-70
2023/10/27 08:34:14;;;;;;;2.85;0.60;;;;;;;11.83;80.94;98498.97;4172296;28;20059;-71
2023/10/27 08:36:16;;;;;;;0.88;0.50;;;;;;;11.74;80.50;98509.56;4193356;28;20036;-70
2023/10/27 08:38:19;;;;;;;3.65;0.73;;;;;;;11.72;81.31;98506.16;4195885;28;20047;-70
2023/10/27 08:40:22;;;;;;;3.90;0.95;;;;;;;11.74;81.25;98520.84;4192804;28;20041;-70
2023/10/27 08:42:27;;;;;;;5.38;0.88;;;;;;;11.79;80.37;98518.97;4195638;28;20052;-71
2023/10/27 08:44:31;;;;;;;2.70;1.98;;;;;;;11.76;80.45;98524.25;4196837;28;20032;-70
2023/10/27 08:46:34;;;;;;;1.80;0.50;;;;;;;11.76;80.44;98518.22;4195040;28;20029;-70
2023/10/27 08:48:40;;;;;;;2.30;0.80;;;;;;;11.78;80.21;98532.03;4195677;28;20590;-70
2023/10/27 08:50:42;;;;;;;0.90;0.55;;;;;;;11.74;80.21;98541.66;4192325;28;20044;-70
2023/10/27 08:52:48;;;;;;;1.25;0.70;;;;;;;11.74;79.65;98543.41;4178384;28;20040;-70
2023/10/27 08:54:51;;;;;;;3.08;0.77;;;;;;;11.74;78.26;98535.59;4196624;28;20431;-71
2023/10/27 08:56:54;;;;;;;2.17;0.88;;;;;;;11.72;78.41;98538.22;4189901;28;20127;-71
2023/10/27 08:58:58;;;;;;;1.70;0.80;;;;;;;11.80;79.37;98544.13;4191661;28;20103;-70
2023/10/27 09:01:01;;;;;;;1.23;0.70;;;;;;;11.73;78.94;98545.16;4195894;28;20036;-70
2023/10/27 09:03:14;;;;;;;0.60;0.50;;;;;;;11.81;79.05;98544.97;4190103;28;20047;-70
2023/10/27 09:05:21;;;;;;;3.95;0.80;;;;;;;11.86;78.94;98550.97;4173326;28;20098;-70
2023/10/27 09:07:28;;;;;;;1.30;0.80;;;;;;;11.92;78.34;98549.97;4168642;28;20045;-70
2023/10/27 09:09:31;;;;;;;1.17;0.73;;;;;;;11.99;79.28;98549.81;4166214;28;20248;-70
2023/10/27 09:11:41;;;;;;;0.50;0.50;;;;;;;11.97;78.30;98553.34;4195211;28;20040;-70
2023/10/27 09:13:44;;;;;;;1.65;0.60;;;;;;;11.88;77.95;98560.47;4194714;28;20052;-70
2023/10/27 09:15:47;;;;;;;0.77;0.65;;;;;;;11.96;78.32;98567.25;4194323;28;20033;-70
2023/10/27 09:17:57;;;;;;;1.05;0.88;;;;;;;12.05;78.54;98567.06;4191506;28;20043;-71
2023/10/27 09:20:04;;;;;;;1.33;0.90;;;;;;;12.03;78.92;98574.03;4169682;28;20032;-70
2023/10/27 09:22:17;;;;;;;1.42;0.90;;;;;;;12.07;78.70;98574.84;4192205;28;20536;-70
2023/10/27 09:24:25;;;;;;;1.05;0.90;;;;;;;12.05;77.67;98585.28;4193184;28;20043;-71
2023/10/27 09:26:29;;;;;;;1.77;0.82;;;;;;;12.08;78.16;98587.84;4175951;28;20467;-70
2023/10/27 09:28:32;;;;;;;1.30;0.77;;;;;;;12.03;78.05;98592.28;4192147;28;20041;-70
2023/10/27 09:30:37;;;;;;;1.73;0.57;;;;;;;12.04;78.60;98594.00;4191971;28;20040;-70
2023/10/27 09:32:42;;;;;;;1.40;0.80;;;;;;;11.98;78.70;98588.94;4195921;28;20040;-70
2023/10/27 09:34:45;;;;;;;1.10;0.73;;;;;;;12.07;78.74;98586.09;4191785;28;20169;-70
2023/10/27 09:36:50;;;;;;;1.23;0.80;;;;;;;12.14;78.38;98587.69;4191576;28;20544;-70
2023/10/27 09:38:55;;;;;;;0.73;0.63;;;;;;;12.33;78.35;98597.69;4193943;28;20734;-71